Time;durP1;ratioP1;P1;durP2;ratioP2;P2;SDS_P1;SDS_P2;PMS_P1;PMS_P2;Temp;Humidity;BMP_temperature;BMP_pressure;BME280_temperature;BME280_humidity;BME280_pressure;Samples;Min_cycle;Max_cycle;Signal;HPM_P1;HPM_P2
2022/09/23 00:00:00;;;;;;;932.67;868.80;;;;;;;10.34;63.07;101774.03;698300;28;21564;-63
2022/09/23 00:00:22;;;;;;;933.27;869.47;;;;;;;10.34;63.57;101762.41;697896;28;22653;-62
2022/09/23 00:00:44;;;;;;;936.55;872.58;;;;;;;10.34;63.23;101765.94;696721;28;67525;-62
2022/09/23 00:01:07;;;;;;;896.88;834.13;;;;;;;10.33;63.21;101769.66;698543;28;23429;-63
2022/09/23 00:01:28;;;;;;;909.58;846.42;;;;;;;10.33;63.45;101766.09;696635;28;68808;-63
2022/09/23 00:01:50;;;;;;;911.28;848.10;;;;;;;10.31;63.01;101766.22;697344;28;23335;-63
2022/09/23 00:02:11;;;;;;;924.58;861.00;;;;;;;10.32;63.01;101772.47;694064;28;69297;-62
2022/09/23 00:02:32;;;;;;;933.03;869.22;;;;;;;10.32;63.21;101770.63;695602;28;21521;-62
2022/09/23 00:02:53;;;;;;;915.22;852.00;;;;;;;10.31;63.04;101765.38;695616;28;22405;-62
2022/09/23 00:03:16;;;;;;;917.72;854.45;;;;;;;10.31;63.38;101763.50;695739;28;22406;-63
2022/09/23 00:03:41;;;;;;;917.88;854.50;;;;;;;10.29;63.54;101769.06;693992;28;69401;-63
2022/09/23 00:04:02;;;;;;;924.65;861.08;;;;;;;10.29;63.25;101765.53;692425;28;115929;-63
2022/09/23 00:04:24;;;;;;;913.42;850.25;;;;;;;10.29;63.43;101768.22;695499;28;21293;-63
2022/09/23 00:04:45;;;;;;;899.67;836.88;;;;;;;10.27;63.39;101768.38;694700;28;46624;-63
2022/09/23 00:05:09;;;;;;;923.90;860.47;;;;;;;10.27;63.07;101762.13;695662;28;23483;-63
2022/09/23 00:05:30;;;;;;;917.40;854.15;;;;;;;10.25;62.99;101762.28;693217;28;92345;-63
2022/09/23 00:05:57;;;;;;;900.38;837.58;;;;;;;10.23;63.02;101760.72;695675;28;23469;-62
2022/09/23 00:06:20;;;;;;;924.53;860.90;;;;;;;10.23;63.08;101766.97;691661;28;138897;-60
2022/09/23 00:06:42;;;;;;;923.70;860.10;;;;;;;10.21;63.10;101760.03;694075;28;69428;-61
2022/09/23 00:07:05;;;;;;;918.35;854.78;;;;;;;10.17;63.26;101762.19;695837;28;45322;-62
2022/09/23 00:07:26;;;;;;;935.88;871.97;;;;;;;10.18;63.23;101763.03;696531;28;69410;-63
2022/09/23 00:07:48;;;;;;;921.25;857.92;;;;;;;10.15;62.96;101763.31;698486;28;22406;-63
2022/09/23 00:08:10;;;;;;;941.90;878.00;;;;;;;10.11;63.46;101757.38;697588;28;44369;-61
2022/09/23 00:08:32;;;;;;;925.60;862.17;;;;;;;10.09;63.08;101762.06;697451;28;46323;-62
2022/09/23 00:09:03;;;;;;;926.15;862.58;;;;;;;10.05;63.07;101761.50;694056;28;61632;-62
2022/09/23 00:09:24;;;;;;;931.78;868.08;;;;;;;10.02;63.27;101758.28;692506;28;23540;-64
2022/09/23 00:09:46;;;;;;;924.42;860.83;;;;;;;10.00;63.19;101766.50;692736;28;21320;-63
2022/09/23 00:10:08;;;;;;;916.90;853.58;;;;;;;9.98;63.56;101759.56;688337;28;65804;-62
2022/09/23 00:10:30;;;;;;;920.80;857.40;;;;;;;9.97;63.55;101763.25;690560;28;21525;-63
2022/09/23 00:10:51;;;;;;;923.30;859.80;;;;;;;9.96;63.26;101758.88;689147;28;46430;-61
2022/09/23 00:11:14;;;;;;;928.15;864.53;;;;;;;9.93;63.57;101751.91;690736;28;21683;-63
2022/09/23 00:11:36;;;;;;;923.92;860.47;;;;;;;9.93;63.72;101760.00;691022;28;69365;-63
2022/09/23 00:11:57;;;;;;;929.17;865.45;;;;;;;9.92;63.56;101755.59;693994;28;45235;-62
2022/09/23 00:12:18;;;;;;;911.05;847.83;;;;;;;9.92;63.98;101755.59;697264;28;23475;-62
2022/09/23 00:12:39;;;;;;;923.10;859.53;;;;;;;9.90;64.08;101752.19;698401;28;22458;-63
2022/09/23 00:13:01;;;;;;;931.28;867.60;;;;;;;9.90;63.89;101750.34;698536;28;23599;-63
2022/09/23 00:13:23;;;;;;;912.70;849.40;;;;;;;9.90;63.61;101752.19;696602;28;68355;-63
2022/09/23 00:13:45;;;;;;;916.65;853.22;;;;;;;9.88;64.08;101751.50;697597;28;22450;-63
2022/09/23 00:14:06;;;;;;;912.08;848.95;;;;;;;9.88;63.68;101751.50;694180;28;67473;-63
2022/09/23 00:14:28;;;;;;;935.75;871.83;;;;;;;9.88;63.98;101751.50;695444;28;23875;-63
2022/09/23 00:14:50;;;;;;;920.58;857.15;;;;;;;9.85;63.81;101749.09;695672;28;21520;-63
2022/09/23 00:15:11;;;;;;;903.35;840.47;;;;;;;9.85;63.90;101749.09;694952;28;46427;-63
2022/09/23 00:15:37;;;;;;;922.47;858.92;;;;;;;9.86;63.83;101753.50;694714;28;46310;-63
2022/09/23 00:16:01;;;;;;;923.42;859.90;;;;;;;9.84;63.87;101750.97;692347;28;115027;-62
2022/09/23 00:16:27;;;;;;;913.70;850.45;;;;;;;9.84;63.80;101755.47;692184;28;113680;-63
2022/09/23 00:16:48;;;;;;;926.95;863.42;;;;;;;9.83;64.16;101754.66;691565;28;115384;-63
2022/09/23 00:17:09;;;;;;;939.33;875.15;;;;;;;9.83;64.22;101754.66;695088;28;22456;-63
2022/09/23 00:17:30;;;;;;;920.22;856.72;;;;;;;9.83;63.89;101748.41;695516;28;22387;-63
2022/09/23 00:17:52;;;;;;;908.35;845.20;;;;;;;9.82;63.85;101746.69;695730;28;21536;-63
2022/09/23 00:18:14;;;;;;;933.20;868.85;;;;;;;9.82;64.15;101749.41;695038;28;22326;-63
2022/09/23 00:18:37;;;;;;;926.05;861.90;;;;;;;9.82;63.89;101752.09;693307;28;69413;-63
2022/09/23 00:18:58;;;;;;;930.78;866.85;;;;;;;9.81;63.98;101745.84;694611;28;44461;-63
2022/09/23 00:19:19;;;;;;;938.55;874.50;;;;;;;9.81;64.06;101750.38;694490;28;47446;-63
2022/09/23 00:19:41;;;;;;;943.38;879.05;;;;;;;9.81;63.97;101748.56;694953;28;22432;-63
2022/09/23 00:20:03;;;;;;;943.58;879.25;;;;;;;9.81;64.00;101750.38;694652;28;46400;-63
2022/09/23 00:20:25;;;;;;;936.08;871.97;;;;;;;9.80;63.98;101746.84;694435;28;46374;-63
2022/09/23 00:20:46;;;;;;;942.08;877.88;;;;;;;9.79;63.92;101747.84;694717;28;46157;-61
2022/09/23 00:21:09;;;;;;;947.80;883.45;;;;;;;9.80;64.18;101748.69;695722;28;21591;-63
2022/09/23 00:21:31;;;;;;;910.80;847.60;;;;;;;9.79;63.90;101739.72;693969;28;69384;-62
2022/09/23 00:21:53;;;;;;;932.78;868.85;;;;;;;9.80;64.00;101740.59;694060;28;46382;-63
2022/09/23 00:22:14;;;;;;;952.88;888.40;;;;;;;9.79;64.16;101737.03;694797;28;46421;-63
2022/09/23 00:22:35;;;;;;;953.88;889.28;;;;;;;9.80;64.34;101743.31;695411;28;23388;-63
2022/09/23 00:22:56;;;;;;;954.43;889.83;;;;;;;9.79;64.07;101742.44;695728;28;22415;-63
2022/09/23 00:23:19;;;;;;;948.03;883.75;;;;;;;9.79;63.92;101747.00;694686;28;46299;-63
2022/09/23 00:23:41;;;;;;;933.75;869.80;;;;;;;9.78;64.21;101739.88;694821;28;45236;-62
2022/09/23 00:24:03;;;;;;;945.67;881.40;;;;;;;9.77;64.14;101741.75;694914;28;46401;-63
2022/09/23 00:24:24;;;;;;;950.65;886.22;;;;;;;9.77;63.96;101746.28;694729;28;46464;-62
2022/09/23 00:24:46;;;;;;;947.13;882.90;;;;;;;9.73;63.87;101741.19;696283;28;891;-63
2022/09/23 00:25:10;;;;;;;939.72;875.83;;;;;;;9.73;64.09;101743.03;695723;28;21519;-61
2022/09/23 00:25:31;;;;;;;889.95;827.47;;;;;;;9.72;64.34;101738.66;693899;28;69361;-63
2022/09/23 00:25:56;;;;;;;887.88;825.42;;;;;;;9.71;63.96;101739.63;695754;28;21534;-63
2022/09/23 00:26:19;;;;;;;924.28;860.78;;;;;;;9.69;64.17;101745.16;692324;28;114891;-62
2022/09/23 00:26:42;;;;;;;917.92;854.53;;;;;;;9.69;64.35;101741.63;693073;28;92245;-63
2022/09/23 00:27:04;;;;;;;929.73;865.87;;;;;;;9.68;64.09;101746.16;693523;28;46425;-63
2022/09/23 00:27:25;;;;;;;950.72;886.13;;;;;;;9.68;64.07;101742.63;694576;28;46300;-63
2022/09/23 00:27:46;;;;;;;929.90;866.13;;;;;;;9.66;64.23;101742.75;695630;28;21545;-63
2022/09/23 00:28:07;;;;;;;924.70;861.22;;;;;;;9.65;64.11;101738.34;695669;28;23516;-63
2022/09/23 00:28:30;;;;;;;937.70;873.63;;;;;;;9.64;64.45;101736.69;694469;28;44384;-62
2022/09/23 00:28:51;;;;;;;930.92;867.03;;;;;;;9.64;64.53;101743.91;694677;28;45244;-63
2022/09/23 00:29:12;;;;;;;919.58;856.22;;;;;;;9.63;64.26;101736.81;694896;28;44086;-62
2022/09/23 00:29:35;;;;;;;935.00;871.05;;;;;;;9.63;64.57;101734.97;695634;28;23418;-63
2022/09/23 00:29:57;;;;;;;929.08;865.30;;;;;;;9.63;64.32;101740.34;694018;28;70186;-63
2022/09/23 00:30:19;;;;;;;923.08;859.53;;;;;;;9.63;64.67;101736.81;695561;28;21496;-63
2022/09/23 00:30:40;;;;;;;935.67;871.70;;;;;;;9.65;64.38;101741.06;694070;28;67481;-63
2022/09/23 00:31:02;;;;;;;930.35;866.53;;;;;;;9.64;64.37;101733.09;695283;28;23485;-62
2022/09/23 00:31:24;;;;;;;926.88;863.17;;;;;;;9.67;64.66;101738.22;694753;28;46305;-62
2022/09/23 00:31:46;;;;;;;938.80;874.78;;;;;;;9.67;64.56;101739.09;694787;28;44356;-63
2022/09/23 00:32:08;;;;;;;914.13;850.88;;;;;;;9.68;64.42;101737.22;693345;28;66334;-62
2022/09/23 00:32:29;;;;;;;916.35;853.03;;;;;;;9.69;64.49;101734.38;695579;28;21605;-62
2022/09/23 00:32:51;;;;;;;924.50;860.88;;;;;;;9.69;64.78;101737.06;695544;28;22392;-63
2022/09/23 00:33:13;;;;;;;920.22;856.65;;;;;;;9.72;64.42;101736.78;694636;28;45265;-63
2022/09/23 00:33:36;;;;;;;905.33;842.30;;;;;;;9.71;64.70;101732.38;694770;28;46644;-62
2022/09/23 00:33:58;;;;;;;924.72;861.20;;;;;;;9.74;64.49;101728.53;694091;28;69460;-62
2022/09/23 00:34:20;;;;;;;912.53;849.47;;;;;;;9.73;64.55;101730.41;694025;28;67490;-63
2022/09/23 00:34:43;;;;;;;928.78;864.97;;;;;;;9.75;64.71;101735.66;695285;28;21571;-63
2022/09/23 00:35:07;;;;;;;920.60;857.15;;;;;;;9.76;64.41;101731.94;690488;28;92290;-63
2022/09/23 00:35:28;;;;;;;926.83;863.13;;;;;;;9.76;64.22;101739.19;691155;28;69294;-63
2022/09/23 00:35:50;;;;;;;919.00;855.60;;;;;;;9.76;64.28;101728.41;692144;28;46294;-63
2022/09/23 00:36:14;;;;;;;939.53;875.47;;;;;;;9.78;64.31;101738.06;692941;28;23402;-63
2022/09/23 00:36:37;;;;;;;920.20;856.67;;;;;;;9.79;64.35;101730.81;692596;28;92174;-63
2022/09/23 00:36:58;;;;;;;918.67;855.03;;;;;;;9.79;64.34;101728.09;692810;28;69481;-62
2022/09/23 00:37:20;;;;;;;923.80;859.90;;;;;;;9.77;64.51;101728.25;695396;28;21600;-63
2022/09/23 00:37:41;;;;;;;930.88;867.10;;;;;;;9.78;64.29;101731.78;694913;28;44119;-62
2022/09/23 00:38:02;;;;;;;940.08;876.05;;;;;;;9.79;64.17;101730.81;696349;28;22363;-62
2022/09/23 00:38:24;;;;;;;935.83;871.85;;;;;;;9.78;64.17;101732.66;698264;28;23456;-63
2022/09/23 00:38:45;;;;;;;947.13;882.85;;;;;;;9.78;64.26;101729.97;697659;28;44591;-63
2022/09/23 00:39:06;;;;;;;941.65;877.60;;;;;;;9.79;64.14;101728.94;697573;28;46298;-62
2022/09/23 00:39:28;;;;;;;895.13;832.40;;;;;;;9.79;64.27;101726.25;695424;28;22402;-63
2022/09/23 00:39:50;;;;;;;918.45;855.05;;;;;;;9.76;63.99;101721.13;695603;28;21099;-63
2022/09/23 00:40:17;;;;;;;933.83;869.90;;;;;;;9.79;63.98;101730.81;694168;28;60638;-63
2022/09/23 00:40:42;;;;;;;937.28;873.22;;;;;;;9.79;64.40;101728.94;695602;28;22402;-63
2022/09/23 00:41:03;;;;;;;928.65;864.95;;;;;;;9.80;64.01;101732.50;692471;28;114025;-63
2022/09/23 00:41:26;;;;;;;937.92;873.88;;;;;;;9.80;63.97;101724.41;694477;28;46355;-63
2022/09/23 00:41:47;;;;;;;934.20;870.20;;;;;;;9.76;64.29;101718.44;693933;28;69408;-63
2022/09/23 00:42:12;;;;;;;934.25;870.35;;;;;;;9.77;64.08;101725.56;696826;28;44546;-63
2022/09/23 00:42:33;;;;;;;872.53;810.47;;;;;;;9.80;64.03;101725.25;694855;28;113668;-62
2022/09/23 00:42:56;;;;;;;908.47;845.47;;;;;;;9.80;64.42;101730.66;698111;28;23450;-62
2022/09/23 00:43:17;;;;;;;940.10;876.13;;;;;;;9.80;64.10;101725.25;697209;28;46309;-63
2022/09/23 00:43:41;;;;;;;943.95;879.65;;;;;;;9.81;64.14;101726.97;697162;28;44134;-62
2022/09/23 00:44:42;;;;;;;926.17;862.60;;;;;;;9.82;64.45;101720.56;696041;28;90359;-62
2022/09/23 00:45:06;;;;;;;952.17;887.67;;;;;;;9.76;64.16;101715.75;693628;28;160617;-63
2022/09/23 00:45:28;;;;;;;942.58;878.47;;;;;;;9.79;63.93;101722.72;695715;28;92236;-63
2022/09/23 00:45:50;;;;;;;889.58;827.05;;;;;;;9.81;63.91;101728.78;697507;28;44365;-63
2022/09/23 00:46:16;;;;;;;900.80;837.88;;;;;;;9.80;63.90;101724.41;698642;28;16621;-62
2022/09/23 00:46:40;;;;;;;924.03;860.38;;;;;;;9.79;64.18;101722.72;694283;28;138025;-62
2022/09/23 00:47:01;;;;;;;920.72;856.92;;;;;;;9.78;63.98;101719.16;694575;28;90532;-62
2022/09/23 00:47:28;;;;;;;926.25;862.28;;;;;;;9.78;64.26;101721.00;698178;28;22395;-63
2022/09/23 00:47:52;;;;;;;938.53;874.42;;;;;;;9.76;63.95;101721.13;694215;28;138313;-63
2022/09/23 00:48:16;;;;;;;908.53;845.55;;;;;;;9.76;64.11;101723.84;696020;28;92007;-63
2022/09/23 00:48:41;;;;;;;912.13;848.97;;;;;;;9.74;64.03;101721.28;694990;28;115086;-62
2022/09/23 00:49:05;;;;;;;917.53;854.13;;;;;;;9.74;64.04;101720.44;695880;28;92111;-63
2022/09/23 00:49:28;;;;;;;929.28;865.58;;;;;;;9.72;64.15;101717.91;695598;28;92378;-63
2022/09/23 00:49:55;;;;;;;912.65;849.22;;;;;;;9.71;64.15;101724.28;696569;28;70284;-62
2022/09/23 00:50:20;;;;;;;933.45;869.70;;;;;;;9.70;64.16;101719.91;694171;28;137825;-62
2022/09/23 00:50:43;;;;;;;907.33;844.53;;;;;;;9.67;64.13;101714.81;694354;28;137732;-64
2022/09/23 00:51:07;;;;;;;929.20;865.70;;;;;;;9.69;64.11;101720.06;696585;28;69463;-63
2022/09/23 00:51:33;;;;;;;930.95;867.30;;;;;;;9.70;64.21;101719.03;696621;28;69415;-63
2022/09/23 00:51:58;;;;;;;948.75;884.47;;;;;;;9.69;64.21;101722.75;691747;28;160915;-63
2022/09/23 00:52:22;;;;;;;953.75;889.28;;;;;;;9.68;64.01;101718.34;692273;28;114363;-62
2022/09/23 00:52:43;;;;;;;936.05;872.22;;;;;;;9.68;64.08;101726.44;692347;28;115119;-63
2022/09/23 00:53:08;;;;;;;908.85;845.88;;;;;;;9.67;64.44;101719.31;695564;28;22371;-63
2022/09/23 00:53:29;;;;;;;923.40;860.03;;;;;;;9.68;64.13;101723.72;692280;28;115270;-63
2022/09/23 00:53:51;;;;;;;936.03;872.28;;;;;;;9.67;64.32;101724.72;695523;28;22407;-63
2022/09/23 00:54:13;;;;;;;921.35;858.05;;;;;;;9.67;64.12;101722.91;694802;28;46411;-63
2022/09/23 00:54:35;;;;;;;928.03;864.50;;;;;;;9.67;64.42;101722.03;694769;28;44311;-62
2022/09/23 00:54:57;;;;;;;928.95;865.53;;;;;;;9.66;64.32;101718.50;694805;28;45232;-63
2022/09/23 00:55:24;;;;;;;940.85;876.92;;;;;;;9.64;64.23;101716.91;694663;28;45231;-63
2022/09/23 00:55:47;;;;;;;946.20;882.05;;;;;;;9.61;64.43;101715.38;691589;28;136175;-63
2022/09/23 00:56:11;;;;;;;915.67;852.40;;;;;;;9.65;64.35;101719.47;693855;28;69523;-63
2022/09/23 00:56:32;;;;;;;895.85;833.35;;;;;;;9.64;64.24;101714.22;693053;28;93060;-63
2022/09/23 00:56:54;;;;;;;914.42;851.22;;;;;;;9.63;64.35;101721.47;694723;28;45221;-64
2022/09/23 00:57:16;;;;;;;918.80;855.17;;;;;;;9.63;64.28;101715.25;698110;28;22429;-63
2022/09/23 00:57:38;;;;;;;915.00;851.65;;;;;;;9.64;64.65;101716.91;697343;28;45348;-62
2022/09/23 00:58:03;;;;;;;901.63;839.13;;;;;;;9.63;64.57;101713.38;696699;28;67546;-63
2022/09/23 00:58:26;;;;;;;908.75;845.92;;;;;;;9.63;64.64;101716.09;695722;28;92110;-62
2022/09/23 00:58:48;;;;;;;924.65;861.17;;;;;;;9.66;64.42;101723.03;696557;28;69403;-63
2022/09/23 00:59:09;;;;;;;905.67;842.78;;;;;;;9.60;64.45;101710.13;697496;28;45253;-63
2022/09/23 00:59:32;;;;;;;926.08;862.33;;;;;;;9.64;64.15;101714.22;694964;28;46317;-63
2022/09/23 00:59:53;;;;;;;932.38;868.63;;;;;;;9.65;64.49;101714.06;694721;28;44371;-62
2022/09/23 01:00:14;;;;;;;934.75;870.90;;;;;;;9.66;64.15;101712.25;694570;28;46263;-63
2022/09/23 01:00:37;;;;;;;941.65;877.55;;;;;;;9.65;64.46;101710.53;695887;28;11410;-62
2022/09/23 01:00:58;;;;;;;935.60;871.72;;;;;;;9.65;64.33;101715.94;694796;28;44355;-63
2022/09/23 01:01:20;;;;;;;904.80;841.88;;;;;;;9.65;64.43;101711.38;694780;28;44120;-63
2022/09/23 01:01:42;;;;;;;912.80;849.63;;;;;;;9.64;64.40;101709.69;695573;28;21554;-62
2022/09/23 01:02:03;;;;;;;924.42;860.92;;;;;;;9.66;64.23;101718.50;694599;28;45258;-61
2022/09/23 01:02:27;;;;;;;933.15;869.35;;;;;;;9.65;64.03;101710.53;697406;28;46312;-62
2022/09/23 01:02:48;;;;;;;938.05;874.00;;;;;;;9.63;64.34;101712.53;696564;28;69472;-62
2022/09/23 01:03:10;;;;;;;942.80;878.70;;;;;;;9.62;63.95;101711.69;698288;28;22404;-63
2022/09/23 01:03:31;;;;;;;929.22;865.45;;;;;;;9.60;64.32;101707.44;697362;28;46383;-63
2022/09/23 01:03:54;;;;;;;937.90;873.85;;;;;;;9.60;63.91;101712.84;698248;28;22464;-63
2022/09/23 01:04:17;;;;;;;937.00;873.10;;;;;;;9.61;64.25;101720.78;696421;28;69666;-63
2022/09/23 01:04:38;;;;;;;944.47;880.17;;;;;;;9.60;64.21;101713.69;697439;28;46341;-63
2022/09/23 01:05:00;;;;;;;931.70;867.90;;;;;;;9.60;64.02;101704.75;697453;28;45203;-62
2022/09/23 01:05:22;;;;;;;925.78;862.17;;;;;;;9.59;64.24;101709.28;697466;28;46246;-63
2022/09/23 01:05:44;;;;;;;937.92;873.90;;;;;;;9.58;64.29;101707.59;697407;28;46328;-62
2022/09/23 01:06:05;;;;;;;940.95;876.92;;;;;;;9.57;64.08;101716.66;698224;28;26861;-63
2022/09/23 01:06:28;;;;;;;941.22;877.30;;;;;;;9.57;64.24;101709.41;698127;28;21533;-62
2022/09/23 01:06:49;;;;;;;935.35;871.60;;;;;;;9.58;64.23;101710.28;695571;28;69385;-63
2022/09/23 01:07:12;;;;;;;950.20;885.67;;;;;;;9.58;64.42;101707.59;694927;28;21539;-63
2022/09/23 01:07:33;;;;;;;940.83;876.78;;;;;;;9.57;64.12;101709.41;693908;28;69187;-63
2022/09/23 01:07:56;;;;;;;943.92;879.85;;;;;;;9.59;64.46;101708.44;695596;28;23439;-62
2022/09/23 01:08:18;;;;;;;923.00;859.45;;;;;;;9.55;64.53;101705.19;693809;28;69150;-63
2022/09/23 01:08:41;;;;;;;874.78;812.63;;;;;;;9.60;64.48;101708.28;694449;28;46304;-62
2022/09/23 01:09:02;;;;;;;890.92;828.45;;;;;;;9.61;64.39;101707.28;693965;28;69439;-63
2022/09/23 01:09:24;;;;;;;905.38;842.50;;;;;;;9.60;64.39;101710.97;695513;28;22403;-63
2022/09/23 01:09:46;;;;;;;910.70;847.63;;;;;;;9.61;64.44;101706.44;694741;28;46376;-62
2022/09/23 01:10:08;;;;;;;921.72;858.35;;;;;;;9.61;64.43;101710.00;694770;28;45251;-63
2022/09/23 01:10:36;;;;;;;916.17;852.78;;;;;;;9.61;64.52;101707.28;693690;28;67468;-62
2022/09/23 01:11:04;;;;;;;927.10;863.47;;;;;;;9.61;64.41;101704.59;690782;28;160681;-62
2022/09/23 01:11:37;;;;;;;915.20;851.97;;;;;;;9.62;64.23;101706.28;691523;28;137947;-63
2022/09/23 01:12:04;;;;;;;923.83;860.30;;;;;;;9.61;64.22;101704.59;690434;28;137672;-63
2022/09/23 01:12:43;;;;;;;930.83;867.17;;;;;;;9.60;64.30;101700.19;691146;28;137830;-63
2022/09/23 01:13:12;;;;;;;935.85;871.92;;;;;;;9.57;64.18;101706.72;691536;28;137713;-63
2022/09/23 01:13:39;;;;;;;933.90;870.00;;;;;;;9.55;63.89;101702.50;691291;28;137876;-61
2022/09/23 01:14:15;;;;;;;938.78;874.70;;;;;;;9.55;64.00;101705.19;690606;28;138022;-64
2022/09/23 01:14:39;;;;;;;899.88;836.65;;;;;;;9.52;64.15;101706.31;688517;28;137527;-62
2022/09/23 01:15:06;;;;;;;907.78;844.80;;;;;;;9.49;64.00;101706.59;689767;28;114909;-64
2022/09/23 01:15:32;;;;;;;914.72;851.53;;;;;;;9.49;63.88;101705.78;688678;28;138162;-62
2022/09/23 01:16:03;;;;;;;929.53;865.85;;;;;;;9.47;63.95;101711.31;688387;28;160861;-63
2022/09/23 01:16:27;;;;;;;906.70;843.80;;;;;;;9.44;64.03;101697.28;690506;28;160906;-63
2022/09/23 01:16:53;;;;;;;904.35;841.45;;;;;;;9.44;64.09;101697.28;691246;28;115307;-63
2022/09/23 01:17:19;;;;;;;908.00;844.53;;;;;;;9.43;64.24;101706.34;691102;28;138523;-63
2022/09/23 01:17:49;;;;;;;921.92;858.33;;;;;;;9.41;64.36;101703.81;691245;28;138131;-63
2022/09/23 01:18:20;;;;;;;907.90;844.78;;;;;;;9.38;64.47;101701.41;691358;28;136382;-63
2022/09/23 01:18:45;;;;;;;919.40;855.85;;;;;;;9.36;64.57;101695.31;691417;28;138512;-63
2022/09/23 01:19:25;;;;;;;905.20;842.28;;;;;;;9.34;64.33;101697.28;691159;28;136492;-63
2022/09/23 01:20:19;;;;;;;902.88;839.97;;;;;;;9.32;64.71;101700.13;690902;28;137678;-64
2022/09/23 01:20:55;;;;;;;918.35;854.95;;;;;;;9.32;64.79;101701.97;691271;28;135978;-63
2022/09/23 01:21:29;;;;;;;909.58;846.55;;;;;;;9.33;64.88;101701.00;691421;28;136025;-62
2022/09/23 01:21:57;;;;;;;932.75;869.05;;;;;;;9.30;65.03;101691.34;690658;28;137483;-63
2022/09/23 01:22:23;;;;;;;936.92;872.95;;;;;;;9.33;64.98;101707.22;691478;28;137572;-63
2022/09/23 01:22:50;;;;;;;935.38;871.53;;;;;;;9.34;64.84;101702.66;691451;28;137657;-63
2022/09/23 01:23:30;;;;;;;891.60;829.00;;;;;;;9.35;65.23;101705.22;688739;28;138031;-63
2022/09/23 01:24:11;;;;;;;910.40;847.40;;;;;;;9.37;64.86;101694.28;688792;28;137546;-62
2022/09/23 01:24:47;;;;;;;924.22;860.83;;;;;;;9.37;64.93;101697.84;687918;28;161649;-63
2022/09/23 01:25:27;;;;;;;905.42;842.50;;;;;;;9.38;64.90;101699.53;688619;28;137740;-63
2022/09/23 01:26:12;;;;;;;922.38;858.83;;;;;;;9.41;64.73;101697.56;688726;28;137555;-62
2022/09/23 01:26:48;;;;;;;909.92;846.72;;;;;;;9.41;64.91;101703.81;688673;28;137481;-63
2022/09/23 01:27:32;;;;;;;918.85;855.42;;;;;;;9.40;64.96;101694.00;686666;28;156514;-63
2022/09/23 01:28:11;;;;;;;916.75;853.42;;;;;;;9.42;64.90;101691.16;691414;28;61554;-61
2022/09/23 01:28:50;;;;;;;918.35;854.53;;;;;;;9.42;64.75;101693.84;687130;28;137564;-63
2022/09/23 01:29:33;;;;;;;928.10;864.50;;;;;;;9.43;64.78;101695.56;688657;28;137503;-62
2022/09/23 01:30:42;;;;;;;919.53;856.07;;;;;;;9.42;64.52;101696.56;688037;28;160624;-63
2022/09/23 01:31:06;;;;;;;925.67;862.08;;;;;;;9.41;64.70;101697.56;685717;28;137507;-63
2022/09/23 01:31:32;;;;;;;936.47;872.50;;;;;;;9.38;64.34;101696.84;686989;28;91757;-62
2022/09/23 01:31:58;;;;;;;954.35;889.70;;;;;;;9.40;64.51;101695.84;685465;28;136503;-62
2022/09/23 01:32:30;;;;;;;955.80;891.22;;;;;;;9.38;64.65;101698.69;688703;28;138019;-62
2022/09/23 01:32:58;;;;;;;938.92;874.85;;;;;;;9.36;64.54;101701.53;688684;28;137559;-62
2022/09/23 01:33:23;;;;;;;948.00;883.78;;;;;;;9.36;64.51;101698.00;688606;28;137573;-63
2022/09/23 01:33:49;;;;;;;965.45;900.47;;;;;;;9.35;64.43;101694.44;691644;28;113449;-62
2022/09/23 01:34:14;;;;;;;961.83;896.97;;;;;;;9.35;64.45;101699.81;691417;28;138115;-61
2022/09/23 01:34:41;;;;;;;952.38;887.83;;;;;;;9.36;64.24;101690.75;693033;28;92437;-62
2022/09/23 01:35:08;;;;;;;947.58;883.13;;;;;;;9.37;64.35;101699.69;691926;28;125436;-61
2022/09/23 01:35:39;;;;;;;944.25;880.08;;;;;;;9.36;64.34;101688.06;691312;28;138066;-63
2022/09/23 01:36:07;;;;;;;933.30;869.45;;;;;;;9.36;64.43;101690.75;691552;28;136001;-62
2022/09/23 01:36:35;;;;;;;932.28;868.55;;;;;;;9.36;64.36;101693.44;691412;28;137934;-63
2022/09/23 01:37:01;;;;;;;928.58;864.80;;;;;;;9.36;64.30;101692.63;692612;28;138722;-61
2022/09/23 01:37:25;;;;;;;932.13;868.08;;;;;;;9.35;64.55;101694.44;696830;28;138012;-62
2022/09/23 01:37:49;;;;;;;922.40;858.90;;;;;;;9.36;64.32;101692.63;698398;28;92267;-63
2022/09/23 01:38:20;;;;;;;931.88;868.10;;;;;;;9.35;64.60;101688.22;698700;28;90721;-62
2022/09/23 01:38:46;;;;;;;920.75;857.35;;;;;;;9.35;64.33;101691.75;691479;28;137443;-63
2022/09/23 01:39:10;;;;;;;930.47;866.80;;;;;;;9.34;64.17;101681.97;691729;28;137036;-63
2022/09/23 01:39:35;;;;;;;932.70;868.83;;;;;;;9.34;64.35;101689.19;693075;28;92263;-63
2022/09/23 01:40:00;;;;;;;943.90;879.63;;;;;;;9.33;64.45;101696.44;693982;28;92263;-63
2022/09/23 01:40:26;;;;;;;937.90;873.95;;;;;;;9.33;64.44;101687.50;693975;28;137389;-62
2022/09/23 01:40:50;;;;;;;955.65;891.08;;;;;;;9.31;64.44;101682.25;694143;28;137769;-62
2022/09/23 01:41:21;;;;;;;951.22;886.72;;;;;;;9.32;64.34;101691.19;698126;28;92261;-63
2022/09/23 01:41:48;;;;;;;958.95;894.35;;;;;;;9.32;64.38;101683.09;695865;28;137801;-62
2022/09/23 01:42:16;;;;;;;936.80;873.00;;;;;;;9.33;64.45;101688.34;694400;28;156749;-62
2022/09/23 01:42:40;;;;;;;913.10;849.95;;;;;;;9.32;64.64;101683.94;696002;28;161197;-62
2022/09/23 01:43:06;;;;;;;920.42;857.13;;;;;;;9.33;64.43;101690.22;696638;28;113531;-61
2022/09/23 01:43:32;;;;;;;922.63;859.17;;;;;;;9.33;64.60;101691.03;691073;28;138436;-61
2022/09/23 01:43:59;;;;;;;934.60;870.60;;;;;;;9.33;64.25;101692.91;691262;28;137800;-62
2022/09/23 01:44:25;;;;;;;935.38;871.45;;;;;;;9.32;64.29;101685.78;691371;28;137457;-62
2022/09/23 01:44:50;;;;;;;921.95;858.53;;;;;;;9.31;64.61;101687.66;692318;28;136459;-61
2022/09/23 01:45:15;;;;;;;930.42;866.67;;;;;;;9.31;64.39;101689.47;695008;28;114995;-62
2022/09/23 01:45:42;;;;;;;943.53;879.38;;;;;;;9.29;64.59;101695.03;694992;28;113545;-62
2022/09/23 01:46:07;;;;;;;947.60;883.25;;;;;;;9.29;64.27;101688.78;694162;28;137633;-62
2022/09/23 01:46:31;;;;;;;941.38;877.25;;;;;;;9.29;64.46;101694.19;695011;28;113908;-62
2022/09/23 01:46:54;;;;;;;948.47;884.10;;;;;;;9.27;64.45;101694.31;694654;28;92297;-63
2022/09/23 01:47:18;;;;;;;954.28;889.47;;;;;;;9.28;64.60;101698.72;696333;28;69541;-63
2022/09/23 01:47:41;;;;;;;938.08;874.10;;;;;;;9.28;64.22;101687.06;695932;28;92251;-62
2022/09/23 01:48:09;;;;;;;952.25;887.83;;;;;;;9.27;64.63;101690.78;695565;28;92234;-63
2022/09/23 01:48:35;;;;;;;918.72;855.30;;;;;;;9.28;64.34;101690.63;693998;28;137990;-63
2022/09/23 01:49:01;;;;;;;929.60;865.92;;;;;;;9.28;64.37;101692.47;694370;28;137370;-63
2022/09/23 01:49:27;;;;;;;934.67;870.78;;;;;;;9.28;64.38;101687.06;694204;28;136358;-63
2022/09/23 01:49:51;;;;;;;931.97;868.13;;;;;;;9.25;64.60;101684.66;694772;28;115103;-63
2022/09/23 01:51:02;;;;;;;927.00;863.53;;;;;;;9.27;64.61;101680.84;694307;28;135976;-63
2022/09/23 01:51:25;;;;;;;932.70;869.00;;;;;;;9.27;64.49;101685.41;694490;28;126065;-62
2022/09/23 01:51:49;;;;;;;924.30;860.80;;;;;;;9.26;64.57;101681.81;695789;28;92270;-63
2022/09/23 01:52:15;;;;;;;942.28;878.17;;;;;;;9.27;64.47;101686.22;692400;28;89061;-63
2022/09/23 01:52:40;;;;;;;962.83;898.03;;;;;;;9.27;64.67;101680.84;691374;28;138007;-63